sensor_id;sensor_type;location;lat;lon;timestamp;P1;durP1;ratioP1;P2;durP2;ratioP2
19566;SDS011;9930;49.240;8.548;2023-07-02T00:00:10;2.30;;;2.03;;
19566;SDS011;9930;49.240;8.548;2023-07-02T00:02:39;2.30;;;2.10;;
19566;SDS011;9930;49.240;8.548;2023-07-02T00:05:05;2.30;;;2.10;;
19566;SDS011;9930;49.240;8.548;2023-07-02T00:07:34;2.50;;;2.30;;
19566;SDS011;9930;49.240;8.548;2023-07-02T00:10:01;2.33;;;2.13;;
19566;SDS011;9930;49.240;8.548;2023-07-02T00:12:32;2.20;;;2.00;;
19566;SDS011;9930;49.240;8.548;2023-07-02T00:14:59;2.13;;;1.75;;
19566;SDS011;9930;49.240;8.548;2023-07-02T00:17:31;2.35;;;2.15;;
19566;SDS011;9930;49.240;8.548;2023-07-02T00:19:57;2.30;;;1.90;;
19566;SDS011;9930;49.240;8.548;2023-07-02T00:22:27;2.00;;;1.90;;
19566;SDS011;9930;49.240;8.548;2023-07-02T00:24:57;2.00;;;1.90;;
19566;SDS011;9930;49.240;8.548;2023-07-02T00:27:26;2.10;;;1.90;;
19566;SDS011;9930;49.240;8.548;2023-07-02T00:29:52;2.55;;;2.35;;
19566;SDS011;9930;49.240;8.548;2023-07-02T00:32:17;2.38;;;2.17;;
19566;SDS011;9930;49.240;8.548;2023-07-02T00:34:43;2.42;;;2.22;;
19566;SDS011;9930;49.240;8.548;2023-07-02T00:37:09;2.17;;;2.08;;
19566;SDS011;9930;49.240;8.548;2023-07-02T00:39:34;2.60;;;2.40;;
19566;SDS011;9930;49.240;8.548;2023-07-02T00:42:01;2.40;;;2.20;;
19566;SDS011;9930;49.240;8.548;2023-07-02T00:44:30;2.58;;;2.38;;
19566;SDS011;9930;49.240;8.548;2023-07-02T00:46:57;2.25;;;2.05;;
19566;SDS011;9930;49.240;8.548;2023-07-02T00:49:26;2.00;;;1.90;;
19566;SDS011;9930;49.240;8.548;2023-07-02T00:51:52;2.47;;;2.28;;
19566;SDS011;9930;49.240;8.548;2023-07-02T00:54:21;2.10;;;1.90;;
19566;SDS011;9930;49.240;8.548;2023-07-02T00:56:46;2.42;;;2.20;;
19566;SDS011;9930;49.240;8.548;2023-07-02T00:59:14;2.30;;;2.10;;
19566;SDS011;9930;49.240;8.548;2023-07-02T01:01:40;2.20;;;2.10;;
19566;SDS011;9930;49.240;8.548;2023-07-02T01:04:06;2.53;;;2.10;;
19566;SDS011;9930;49.240;8.548;2023-07-02T01:06:37;2.17;;;2.00;;
19566;SDS011;9930;49.240;8.548;2023-07-02T01:09:06;2.42;;;2.22;;
19566;SDS011;9930;49.240;8.548;2023-07-02T01:17:08;2.40;;;2.17;;
19566;SDS011;9930;49.240;8.548;2023-07-02T01:22:16;2.00;;;1.90;;
19566;SDS011;9930;49.240;8.548;2023-07-02T01:24:49;2.53;;;2.33;;
19566;SDS011;9930;49.240;8.548;2023-07-02T01:27:16;2.03;;;1.92;;
19566;SDS011;9930;49.240;8.548;2023-07-02T01:29:42;3.03;;;2.05;;
19566;SDS011;9930;49.240;8.548;2023-07-02T01:32:12;2.40;;;2.20;;
19566;SDS011;9930;49.240;8.548;2023-07-02T01:34:39;2.22;;;2.03;;
19566;SDS011;9930;49.240;8.548;2023-07-02T01:37:07;2.05;;;1.95;;
19566;SDS011;9930;49.240;8.548;2023-07-02T01:39:34;2.53;;;2.33;;
19566;SDS011;9930;49.240;8.548;2023-07-02T01:42:09;3.17;;;2.20;;
19566;SDS011;9930;49.240;8.548;2023-07-02T01:44:36;2.33;;;2.13;;
19566;SDS011;9930;49.240;8.548;2023-07-02T01:47:03;2.40;;;2.20;;
19566;SDS011;9930;49.240;8.548;2023-07-02T01:49:32;2.80;;;2.28;;
19566;SDS011;9930;49.240;8.548;2023-07-02T01:52:01;2.25;;;2.00;;
19566;SDS011;9930;49.240;8.548;2023-07-02T01:54:27;2.47;;;2.00;;
19566;SDS011;9930;49.240;8.548;2023-07-02T01:56:54;2.00;;;1.80;;
19566;SDS011;9930;49.240;8.548;2023-07-02T01:59:21;2.17;;;1.90;;
19566;SDS011;9930;49.240;8.548;2023-07-02T02:01:50;2.60;;;2.10;;
19566;SDS011;9930;49.240;8.548;2023-07-02T02:04:21;2.03;;;1.85;;
19566;SDS011;9930;49.240;8.548;2023-07-02T02:06:49;2.50;;;2.30;;
19566;SDS011;9930;49.240;8.548;2023-07-02T02:09:14;3.78;;;1.95;;
19566;SDS011;9930;49.240;8.548;2023-07-02T02:11:41;2.25;;;2.08;;
19566;SDS011;9930;49.240;8.548;2023-07-02T02:14:15;2.25;;;2.05;;
19566;SDS011;9930;49.240;8.548;2023-07-02T02:16:42;2.50;;;2.30;;
19566;SDS011;9930;49.240;8.548;2023-07-02T02:19:12;2.00;;;1.90;;
19566;SDS011;9930;49.240;8.548;2023-07-02T02:21:42;2.38;;;2.13;;
19566;SDS011;9930;49.240;8.548;2023-07-02T02:24:08;2.20;;;2.00;;
19566;SDS011;9930;49.240;8.548;2023-07-02T02:26:34;2.00;;;1.83;;
19566;SDS011;9930;49.240;8.548;2023-07-02T02:29:00;2.22;;;2.03;;
19566;SDS011;9930;49.240;8.548;2023-07-02T02:31:28;2.25;;;2.05;;
19566;SDS011;9930;49.240;8.548;2023-07-02T02:33:57;2.45;;;2.25;;
19566;SDS011;9930;49.240;8.548;2023-07-02T02:36:24;2.30;;;2.10;;
19566;SDS011;9930;49.240;8.548;2023-07-02T02:38:52;2.22;;;2.03;;
19566;SDS011;9930;49.240;8.548;2023-07-02T02:41:17;2.10;;;2.00;;
19566;SDS011;9930;49.240;8.548;2023-07-02T02:43:43;2.38;;;2.17;;
19566;SDS011;9930;49.240;8.548;2023-07-02T02:46:11;2.22;;;2.03;;
19566;SDS011;9930;49.240;8.548;2023-07-02T02:48:37;2.58;;;2.05;;
19566;SDS011;9930;49.240;8.548;2023-07-02T02:51:05;2.50;;;2.30;;
19566;SDS011;9930;49.240;8.548;2023-07-02T02:53:32;2.20;;;2.00;;
19566;SDS011;9930;49.240;8.548;2023-07-02T02:55:58;2.45;;;2.25;;
19566;SDS011;9930;49.240;8.548;2023-07-02T02:58:23;3.30;;;2.47;;
19566;SDS011;9930;49.240;8.548;2023-07-02T03:00:53;2.30;;;2.10;;
19566;SDS011;9930;49.240;8.548;2023-07-02T03:03:18;2.97;;;2.20;;
19566;SDS011;9930;49.240;8.548;2023-07-02T03:05:45;3.42;;;2.30;;
19566;SDS011;9930;49.240;8.548;2023-07-02T03:08:18;2.78;;;2.58;;
19566;SDS011;9930;49.240;8.548;2023-07-02T03:10:46;2.60;;;2.40;;
19566;SDS011;9930;49.240;8.548;2023-07-02T03:13:14;2.65;;;2.45;;
19566;SDS011;9930;49.240;8.548;2023-07-02T03:15:42;3.95;;;2.70;;
19566;SDS011;9930;49.240;8.548;2023-07-02T03:18:08;2.88;;;2.58;;
19566;SDS011;9930;49.240;8.548;2023-07-02T03:20:39;5.93;;;2.88;;
19566;SDS011;9930;49.240;8.548;2023-07-02T03:23:04;3.20;;;2.90;;
19566;SDS011;9930;49.240;8.548;2023-07-02T03:25:33;3.03;;;2.83;;
19566;SDS011;9930;49.240;8.548;2023-07-02T03:27:59;3.65;;;2.80;;
19566;SDS011;9930;49.240;8.548;2023-07-02T03:30:26;2.80;;;2.60;;
19566;SDS011;9930;49.240;8.548;2023-07-02T03:32:59;3.50;;;2.90;;
19566;SDS011;9930;49.240;8.548;2023-07-02T03:35:28;3.00;;;2.53;;
19566;SDS011;9930;49.240;8.548;2023-07-02T03:37:59;3.40;;;3.10;;
19566;SDS011;9930;49.240;8.548;2023-07-02T03:40:25;3.17;;;2.88;;
19566;SDS011;9930;49.240;8.548;2023-07-02T03:42:52;3.90;;;2.65;;
19566;SDS011;9930;49.240;8.548;2023-07-02T03:45:18;2.67;;;2.47;;
19566;SDS011;9930;49.240;8.548;2023-07-02T03:47:46;2.58;;;2.38;;
19566;SDS011;9930;49.240;8.548;2023-07-02T03:50:11;3.20;;;2.63;;
19566;SDS011;9930;49.240;8.548;2023-07-02T03:52:37;3.40;;;2.50;;
19566;SDS011;9930;49.240;8.548;2023-07-02T03:55:05;3.05;;;2.60;;
19566;SDS011;9930;49.240;8.548;2023-07-02T03:57:34;3.10;;;2.80;;
19566;SDS011;9930;49.240;8.548;2023-07-02T04:00:02;2.40;;;2.20;;
19566;SDS011;9930;49.240;8.548;2023-07-02T04:02:32;2.75;;;2.53;;
19566;SDS011;9930;49.240;8.548;2023-07-02T04:04:58;4.20;;;2.78;;
19566;SDS011;9930;49.240;8.548;2023-07-02T04:07:27;3.72;;;3.30;;
19566;SDS011;9930;49.240;8.548;2023-07-02T04:09:58;3.88;;;3.00;;
19566;SDS011;9930;49.240;8.548;2023-07-02T04:12:26;5.38;;;2.78;;
19566;SDS011;9930;49.240;8.548;2023-07-02T04:14:52;3.72;;;2.97;;
19566;SDS011;9930;49.240;8.548;2023-07-02T04:17:18;3.35;;;3.00;;
19566;SDS011;9930;49.240;8.548;2023-07-02T04:19:46;2.70;;;2.50;;
19566;SDS011;9930;49.240;8.548;2023-07-02T04:22:12;3.10;;;2.63;;
19566;SDS011;9930;49.240;8.548;2023-07-02T04:24:37;3.65;;;2.90;;
19566;SDS011;9930;49.240;8.548;2023-07-02T04:27:05;4.68;;;2.80;;
19566;SDS011;9930;49.240;8.548;2023-07-02T04:29:34;3.78;;;3.08;;
19566;SDS011;9930;49.240;8.548;2023-07-02T04:31:59;4.18;;;3.30;;
19566;SDS011;9930;49.240;8.548;2023-07-02T04:34:28;3.63;;;3.30;;
19566;SDS011;9930;49.240;8.548;2023-07-02T04:36:54;3.78;;;3.03;;
19566;SDS011;9930;49.240;8.548;2023-07-02T04:39:21;3.30;;;3.00;;
19566;SDS011;9930;49.240;8.548;2023-07-02T04:41:47;3.22;;;2.78;;
19566;SDS011;9930;49.240;8.548;2023-07-02T04:44:17;3.20;;;2.92;;
19566;SDS011;9930;49.240;8.548;2023-07-02T04:46:43;4.22;;;3.00;;
19566;SDS011;9930;49.240;8.548;2023-07-02T04:49:08;3.28;;;2.90;;
19566;SDS011;9930;49.240;8.548;2023-07-02T04:51:34;4.40;;;3.58;;
19566;SDS011;9930;49.240;8.548;2023-07-02T04:54:00;3.95;;;3.00;;
19566;SDS011;9930;49.240;8.548;2023-07-02T04:56:26;3.65;;;3.05;;
19566;SDS011;9930;49.240;8.548;2023-07-02T04:58:56;3.60;;;3.30;;
19566;SDS011;9930;49.240;8.548;2023-07-02T05:01:24;3.33;;;3.03;;
19566;SDS011;9930;49.240;8.548;2023-07-02T05:03:57;3.53;;;3.13;;
19566;SDS011;9930;49.240;8.548;2023-07-02T05:06:23;3.67;;;2.95;;
19566;SDS011;9930;49.240;8.548;2023-07-02T05:08:49;3.38;;;3.08;;
19566;SDS011;9930;49.240;8.548;2023-07-02T05:11:14;3.53;;;3.00;;
19566;SDS011;9930;49.240;8.548;2023-07-02T05:13:40;3.55;;;3.10;;
19566;SDS011;9930;49.240;8.548;2023-07-02T05:16:06;3.67;;;3.33;;
19566;SDS011;9930;49.240;8.548;2023-07-02T05:18:31;5.30;;;3.60;;
19566;SDS011;9930;49.240;8.548;2023-07-02T05:20:59;4.32;;;3.50;;
19566;SDS011;9930;49.240;8.548;2023-07-02T05:23:27;4.95;;;4.13;;
19566;SDS011;9930;49.240;8.548;2023-07-02T05:25:54;6.28;;;4.00;;
19566;SDS011;9930;49.240;8.548;2023-07-02T05:28:21;5.90;;;4.13;;
19566;SDS011;9930;49.240;8.548;2023-07-02T05:30:52;5.05;;;3.92;;
19566;SDS011;9930;49.240;8.548;2023-07-02T05:33:27;4.72;;;3.90;;
19566;SDS011;9930;49.240;8.548;2023-07-02T05:36:01;5.70;;;4.47;;
19566;SDS011;9930;49.240;8.548;2023-07-02T05:38:29;4.57;;;4.07;;
19566;SDS011;9930;49.240;8.548;2023-07-02T05:41:01;5.15;;;4.63;;
19566;SDS011;9930;49.240;8.548;2023-07-02T05:43:28;5.20;;;4.25;;
19566;SDS011;9930;49.240;8.548;2023-07-02T05:45:57;5.20;;;4.70;;
19566;SDS011;9930;49.240;8.548;2023-07-02T05:48:27;5.70;;;4.93;;
19566;SDS011;9930;49.240;8.548;2023-07-02T05:50:53;6.65;;;4.80;;
19566;SDS011;9930;49.240;8.548;2023-07-02T05:53:21;5.97;;;5.22;;
19566;SDS011;9930;49.240;8.548;2023-07-02T05:55:47;5.97;;;5.05;;
19566;SDS011;9930;49.240;8.548;2023-07-02T05:58:15;7.20;;;5.05;;
19566;SDS011;9930;49.240;8.548;2023-07-02T06:00:40;7.20;;;5.70;;
19566;SDS011;9930;49.240;8.548;2023-07-02T06:03:06;5.78;;;5.10;;
19566;SDS011;9930;49.240;8.548;2023-07-02T06:05:32;6.78;;;5.60;;
19566;SDS011;9930;49.240;8.548;2023-07-02T06:07:58;6.53;;;5.13;;
19566;SDS011;9930;49.240;8.548;2023-07-02T06:10:24;8.00;;;5.90;;
19566;SDS011;9930;49.240;8.548;2023-07-02T06:12:52;8.60;;;5.97;;
19566;SDS011;9930;49.240;8.548;2023-07-02T06:15:25;7.28;;;6.10;;
19566;SDS011;9930;49.240;8.548;2023-07-02T06:17:56;8.35;;;5.53;;
19566;SDS011;9930;49.240;8.548;2023-07-02T06:20:27;7.28;;;6.45;;
19566;SDS011;9930;49.240;8.548;2023-07-02T06:22:54;7.95;;;6.65;;
19566;SDS011;9930;49.240;8.548;2023-07-02T06:25:21;7.38;;;6.20;;
19566;SDS011;9930;49.240;8.548;2023-07-02T06:27:47;7.47;;;6.28;;
19566;SDS011;9930;49.240;8.548;2023-07-02T06:30:15;8.88;;;7.60;;
19566;SDS011;9930;49.240;8.548;2023-07-02T06:32:45;9.57;;;6.82;;
19566;SDS011;9930;49.240;8.548;2023-07-02T06:35:11;7.38;;;6.68;;
19566;SDS011;9930;49.240;8.548;2023-07-02T06:37:41;7.10;;;6.40;;
19566;SDS011;9930;49.240;8.548;2023-07-02T06:40:07;7.95;;;6.80;;
19566;SDS011;9930;49.240;8.548;2023-07-02T06:42:34;7.22;;;6.45;;
19566;SDS011;9930;49.240;8.548;2023-07-02T06:45:01;9.80;;;6.90;;
19566;SDS011;9930;49.240;8.548;2023-07-02T06:47:28;8.45;;;7.10;;
19566;SDS011;9930;49.240;8.548;2023-07-02T06:49:59;7.82;;;7.05;;
19566;SDS011;9930;49.240;8.548;2023-07-02T06:52:28;7.10;;;6.40;;
19566;SDS011;9930;49.240;8.548;2023-07-02T06:54:54;7.85;;;6.88;;
19566;SDS011;9930;49.240;8.548;2023-07-02T06:57:19;7.57;;;6.78;;
19566;SDS011;9930;49.240;8.548;2023-07-02T06:59:45;7.70;;;6.65;;
19566;SDS011;9930;49.240;8.548;2023-07-02T07:02:13;8.48;;;7.60;;
19566;SDS011;9930;49.240;8.548;2023-07-02T07:04:43;9.02;;;7.10;;
19566;SDS011;9930;49.240;8.548;2023-07-02T07:07:14;8.55;;;6.93;;
19566;SDS011;9930;49.240;8.548;2023-07-02T07:09:42;7.43;;;6.68;;
19566;SDS011;9930;49.240;8.548;2023-07-02T07:12:10;9.15;;;7.55;;
19566;SDS011;9930;49.240;8.548;2023-07-02T07:14:35;7.43;;;6.72;;
19566;SDS011;9930;49.240;8.548;2023-07-02T07:17:01;7.88;;;7.18;;
19566;SDS011;9930;49.240;8.548;2023-07-02T07:19:27;7.82;;;7.03;;
19566;SDS011;9930;49.240;8.548;2023-07-02T07:21:55;7.80;;;7.00;;
19566;SDS011;9930;49.240;8.548;2023-07-02T07:24:23;7.43;;;6.57;;
19566;SDS011;9930;49.240;8.548;2023-07-02T07:26:51;7.53;;;6.82;;
19566;SDS011;9930;49.240;8.548;2023-07-02T07:29:17;8.82;;;6.93;;
19566;SDS011;9930;49.240;8.548;2023-07-02T07:31:43;8.65;;;7.00;;
19566;SDS011;9930;49.240;8.548;2023-07-02T07:34:11;8.30;;;6.30;;
19566;SDS011;9930;49.240;8.548;2023-07-02T07:36:39;8.02;;;7.22;;
19566;SDS011;9930;49.240;8.548;2023-07-02T07:39:05;9.95;;;8.13;;
19566;SDS011;9930;49.240;8.548;2023-07-02T07:41:30;8.20;;;7.22;;
19566;SDS011;9930;49.240;8.548;2023-07-02T07:43:58;7.80;;;7.00;;
19566;SDS011;9930;49.240;8.548;2023-07-02T07:46:26;8.95;;;7.57;;
19566;SDS011;9930;49.240;8.548;2023-07-02T07:48:54;7.68;;;6.97;;
19566;SDS011;9930;49.240;8.548;2023-07-02T07:51:22;8.32;;;7.50;;
19566;SDS011;9930;49.240;8.548;2023-07-02T07:53:48;8.93;;;7.40;;
19566;SDS011;9930;49.240;8.548;2023-07-02T07:56:13;8.70;;;7.80;;
19566;SDS011;9930;49.240;8.548;2023-07-02T07:58:39;9.80;;;8.80;;
19566;SDS011;9930;49.240;8.548;2023-07-02T08:01:07;9.50;;;8.27;;
19566;SDS011;9930;49.240;8.548;2023-07-02T08:03:37;9.88;;;8.50;;
19566;SDS011;9930;49.240;8.548;2023-07-02T08:06:05;9.57;;;8.15;;
19566;SDS011;9930;49.240;8.548;2023-07-02T08:08:33;9.73;;;8.73;;
19566;SDS011;9930;49.240;8.548;2023-07-02T08:11:01;8.85;;;7.95;;
19566;SDS011;9930;49.240;8.548;2023-07-02T08:13:26;10.00;;;8.90;;
19566;SDS011;9930;49.240;8.548;2023-07-02T08:15:52;11.68;;;9.57;;
19566;SDS011;9930;49.240;8.548;2023-07-02T08:18:18;10.30;;;9.30;;
19566;SDS011;9930;49.240;8.548;2023-07-02T08:20:44;10.98;;;9.40;;
19566;SDS011;9930;49.240;8.548;2023-07-02T08:23:09;10.82;;;9.73;;
19566;SDS011;9930;49.240;8.548;2023-07-02T08:25:36;11.10;;;9.80;;
19566;SDS011;9930;49.240;8.548;2023-07-02T08:28:02;11.88;;;10.35;;
19566;SDS011;9930;49.240;8.548;2023-07-02T08:30:30;13.40;;;10.45;;
19566;SDS011;9930;49.240;8.548;2023-07-02T08:32:58;12.00;;;10.80;;
19566;SDS011;9930;49.240;8.548;2023-07-02T08:35:24;12.85;;;11.43;;
19566;SDS011;9930;49.240;8.548;2023-07-02T08:38:00;14.13;;;11.40;;
19566;SDS011;9930;49.240;8.548;2023-07-02T08:40:28;12.68;;;11.07;;
19566;SDS011;9930;49.240;8.548;2023-07-02T08:42:54;12.35;;;11.05;;
19566;SDS011;9930;49.240;8.548;2023-07-02T08:45:25;14.43;;;12.82;;
19566;SDS011;9930;49.240;8.548;2023-07-02T08:47:53;13.75;;;12.18;;
19566;SDS011;9930;49.240;8.548;2023-07-02T08:50:21;15.70;;;13.18;;
19566;SDS011;9930;49.240;8.548;2023-07-02T08:52:48;13.32;;;11.65;;
19566;SDS011;9930;49.240;8.548;2023-07-02T08:55:15;14.25;;;12.00;;
19566;SDS011;9930;49.240;8.548;2023-07-02T08:57:42;13.68;;;11.95;;
19566;SDS011;9930;49.240;8.548;2023-07-02T09:00:15;14.18;;;12.35;;
19566;SDS011;9930;49.240;8.548;2023-07-02T09:02:46;14.48;;;12.10;;
19566;SDS011;9930;49.240;8.548;2023-07-02T09:05:14;13.90;;;11.90;;
19566;SDS011;9930;49.240;8.548;2023-07-02T09:07:43;12.75;;;11.45;;
19566;SDS011;9930;49.240;8.548;2023-07-02T09:10:29;14.18;;;12.05;;
19566;SDS011;9930;49.240;8.548;2023-07-02T09:15:40;14.07;;;11.88;;
19566;SDS011;9930;49.240;8.548;2023-07-02T09:18:14;12.85;;;11.52;;
19566;SDS011;9930;49.240;8.548;2023-07-02T09:20:54;13.82;;;12.43;;
19566;SDS011;9930;49.240;8.548;2023-07-02T09:23:31;13.15;;;11.85;;
19566;SDS011;9930;49.240;8.548;2023-07-02T09:26:00;15.02;;;12.18;;
19566;SDS011;9930;49.240;8.548;2023-07-02T09:28:26;15.23;;;12.57;;
19566;SDS011;9930;49.240;8.548;2023-07-02T09:30:57;13.52;;;11.98;;
19566;SDS011;9930;49.240;8.548;2023-07-02T09:33:29;13.13;;;11.38;;
19566;SDS011;9930;49.240;8.548;2023-07-02T09:35:56;13.23;;;11.88;;
19566;SDS011;9930;49.240;8.548;2023-07-02T09:38:24;14.07;;;11.75;;
19566;SDS011;9930;49.240;8.548;2023-07-02T09:40:54;14.05;;;12.55;;
19566;SDS011;9930;49.240;8.548;2023-07-02T09:43:25;13.50;;;12.10;;
19566;SDS011;9930;49.240;8.548;2023-07-02T09:45:54;15.85;;;12.90;;
19566;SDS011;9930;49.240;8.548;2023-07-02T09:48:24;13.27;;;11.85;;
19566;SDS011;9930;49.240;8.548;2023-07-02T09:50:56;15.52;;;13.00;;
19566;SDS011;9930;49.240;8.548;2023-07-02T09:53:25;15.60;;;13.30;;
19566;SDS011;9930;49.240;8.548;2023-07-02T09:55:54;13.75;;;12.32;;
19566;SDS011;9930;49.240;8.548;2023-07-02T09:58:22;13.52;;;12.07;;
19566;SDS011;9930;49.240;8.548;2023-07-02T10:00:48;13.25;;;11.93;;
19566;SDS011;9930;49.240;8.548;2023-07-02T10:03:15;14.75;;;11.70;;
19566;SDS011;9930;49.240;8.548;2023-07-02T10:05:40;13.85;;;12.18;;
19566;SDS011;9930;49.240;8.548;2023-07-02T10:08:12;14.32;;;12.13;;
19566;SDS011;9930;49.240;8.548;2023-07-02T10:10:41;13.32;;;11.93;;
19566;SDS011;9930;49.240;8.548;2023-07-02T10:13:07;13.93;;;12.50;;
19566;SDS011;9930;49.240;8.548;2023-07-02T10:15:33;14.82;;;12.80;;
19566;SDS011;9930;49.240;8.548;2023-07-02T10:18:03;13.32;;;11.95;;
19566;SDS011;9930;49.240;8.548;2023-07-02T10:23:05;13.05;;;11.75;;
19566;SDS011;9930;49.240;8.548;2023-07-02T10:25:33;14.40;;;12.85;;
19566;SDS011;9930;49.240;8.548;2023-07-02T10:28:13;14.32;;;12.23;;
19566;SDS011;9930;49.240;8.548;2023-07-02T10:30:45;13.90;;;12.40;;
19566;SDS011;9930;49.240;8.548;2023-07-02T10:33:11;14.20;;;11.98;;
19566;SDS011;9930;49.240;8.548;2023-07-02T10:35:42;15.57;;;12.27;;
19566;SDS011;9930;49.240;8.548;2023-07-02T10:38:19;13.43;;;11.98;;
19566;SDS011;9930;49.240;8.548;2023-07-02T10:41:02;13.05;;;11.55;;
19566;SDS011;9930;49.240;8.548;2023-07-02T10:43:29;13.35;;;11.95;;
19566;SDS011;9930;49.240;8.548;2023-07-02T10:45:58;15.35;;;11.65;;
19566;SDS011;9930;49.240;8.548;2023-07-02T10:48:27;13.82;;;12.32;;
19566;SDS011;9930;49.240;8.548;2023-07-02T10:50:55;14.15;;;12.50;;
19566;SDS011;9930;49.240;8.548;2023-07-02T10:53:23;13.70;;;12.30;;
19566;SDS011;9930;49.240;8.548;2023-07-02T10:55:55;13.20;;;11.80;;
19566;SDS011;9930;49.240;8.548;2023-07-02T10:58:24;13.45;;;12.05;;
19566;SDS011;9930;49.240;8.548;2023-07-02T11:00:52;15.05;;;12.32;;
19566;SDS011;9930;49.240;8.548;2023-07-02T11:03:19;13.82;;;12.25;;
19566;SDS011;9930;49.240;8.548;2023-07-02T11:05:46;14.63;;;13.13;;
19566;SDS011;9930;49.240;8.548;2023-07-02T11:08:15;13.32;;;11.93;;
19566;SDS011;9930;49.240;8.548;2023-07-02T11:10:42;15.05;;;12.85;;
19566;SDS011;9930;49.240;8.548;2023-07-02T11:13:16;14.88;;;12.65;;
19566;SDS011;9930;49.240;8.548;2023-07-02T11:15:47;14.85;;;12.35;;
19566;SDS011;9930;49.240;8.548;2023-07-02T11:18:13;13.65;;;12.27;;
19566;SDS011;9930;49.240;8.548;2023-07-02T11:20:46;12.40;;;11.15;;
19566;SDS011;9930;49.240;8.548;2023-07-02T11:23:20;14.82;;;12.23;;
19566;SDS011;9930;49.240;8.548;2023-07-02T11:26:00;14.52;;;12.27;;
19566;SDS011;9930;49.240;8.548;2023-07-02T11:28:28;13.18;;;11.88;;
19566;SDS011;9930;49.240;8.548;2023-07-02T11:31:05;14.40;;;12.43;;
19566;SDS011;9930;49.240;8.548;2023-07-02T11:33:35;13.80;;;11.75;;
19566;SDS011;9930;49.240;8.548;2023-07-02T11:36:03;13.27;;;11.98;;
19566;SDS011;9930;49.240;8.548;2023-07-02T11:38:44;13.70;;;12.27;;
19566;SDS011;9930;49.240;8.548;2023-07-02T11:41:13;13.35;;;11.95;;
19566;SDS011;9930;49.240;8.548;2023-07-02T11:43:40;13.00;;;11.68;;
19566;SDS011;9930;49.240;8.548;2023-07-02T11:46:06;14.63;;;12.07;;
19566;SDS011;9930;49.240;8.548;2023-07-02T11:48:36;13.00;;;11.63;;
19566;SDS011;9930;49.240;8.548;2023-07-02T11:51:04;12.38;;;11.18;;
19566;SDS011;9930;49.240;8.548;2023-07-02T11:53:32;14.15;;;12.02;;
19566;SDS011;9930;49.240;8.548;2023-07-02T11:56:04;13.10;;;11.70;;
19566;SDS011;9930;49.240;8.548;2023-07-02T11:58:29;14.00;;;12.07;;
19566;SDS011;9930;49.240;8.548;2023-07-02T12:00:56;13.48;;;11.70;;
19566;SDS011;9930;49.240;8.548;2023-07-02T12:03:24;12.23;;;10.93;;
19566;SDS011;9930;49.240;8.548;2023-07-02T12:05:52;12.63;;;11.32;;
19566;SDS011;9930;49.240;8.548;2023-07-02T12:08:24;12.25;;;10.88;;
19566;SDS011;9930;49.240;8.548;2023-07-02T12:10:49;14.30;;;12.68;;
19566;SDS011;9930;49.240;8.548;2023-07-02T12:13:18;13.23;;;11.80;;
19566;SDS011;9930;49.240;8.548;2023-07-02T12:15:46;12.98;;;11.68;;
19566;SDS011;9930;49.240;8.548;2023-07-02T12:18:16;13.50;;;12.10;;
19566;SDS011;9930;49.240;8.548;2023-07-02T12:20:42;12.77;;;11.48;;
19566;SDS011;9930;49.240;8.548;2023-07-02T12:23:10;14.85;;;12.73;;
19566;SDS011;9930;49.240;8.548;2023-07-02T12:25:37;14.02;;;12.63;;
19566;SDS011;9930;49.240;8.548;2023-07-02T12:28:05;13.55;;;12.15;;
19566;SDS011;9930;49.240;8.548;2023-07-02T12:30:31;12.65;;;11.35;;
19566;SDS011;9930;49.240;8.548;2023-07-02T12:33:02;13.55;;;12.07;;
19566;SDS011;9930;49.240;8.548;2023-07-02T12:35:28;13.02;;;11.77;;
19566;SDS011;9930;49.240;8.548;2023-07-02T12:37:55;13.93;;;12.48;;
19566;SDS011;9930;49.240;8.548;2023-07-02T12:40:21;14.20;;;12.32;;
19566;SDS011;9930;49.240;8.548;2023-07-02T12:42:47;13.27;;;11.90;;
19566;SDS011;9930;49.240;8.548;2023-07-02T12:45:19;14.55;;;12.38;;
19566;SDS011;9930;49.240;8.548;2023-07-02T12:47:45;13.23;;;11.80;;
19566;SDS011;9930;49.240;8.548;2023-07-02T12:50:10;13.48;;;12.13;;
19566;SDS011;9930;49.240;8.548;2023-07-02T12:52:36;13.55;;;12.25;;
19566;SDS011;9930;49.240;8.548;2023-07-02T12:55:02;14.63;;;12.30;;
19566;SDS011;9930;49.240;8.548;2023-07-02T12:57:29;13.63;;;11.80;;
19566;SDS011;9930;49.240;8.548;2023-07-02T12:59:55;13.52;;;12.00;;
19566;SDS011;9930;49.240;8.548;2023-07-02T13:02:23;14.07;;;12.55;;
19566;SDS011;9930;49.240;8.548;2023-07-02T13:04:49;13.55;;;12.23;;
19566;SDS011;9930;49.240;8.548;2023-07-02T13:07:18;13.40;;;11.95;;
19566;SDS011;9930;49.240;8.548;2023-07-02T13:09:44;14.20;;;12.73;;
19566;SDS011;9930;49.240;8.548;2023-07-02T13:12:10;13.27;;;11.88;;
19566;SDS011;9930;49.240;8.548;2023-07-02T13:14:39;14.32;;;12.57;;
19566;SDS011;9930;49.240;8.548;2023-07-02T13:17:07;14.68;;;12.32;;
19566;SDS011;9930;49.240;8.548;2023-07-02T13:19:33;12.60;;;11.30;;
19566;SDS011;9930;49.240;8.548;2023-07-02T13:22:00;13.38;;;12.02;;
19566;SDS011;9930;49.240;8.548;2023-07-02T13:24:27;13.07;;;11.75;;
19566;SDS011;9930;49.240;8.548;2023-07-02T13:27:00;13.32;;;12.07;;
19566;SDS011;9930;49.240;8.548;2023-07-02T13:29:36;13.43;;;12.02;;
19566;SDS011;9930;49.240;8.548;2023-07-02T13:32:01;14.85;;;13.35;;
19566;SDS011;9930;49.240;8.548;2023-07-02T13:34:28;15.98;;;12.90;;
19566;SDS011;9930;49.240;8.548;2023-07-02T13:36:56;13.98;;;12.35;;
19566;SDS011;9930;49.240;8.548;2023-07-02T13:39:23;13.68;;;12.23;;
19566;SDS011;9930;49.240;8.548;2023-07-02T13:41:50;13.60;;;12.20;;
19566;SDS011;9930;49.240;8.548;2023-07-02T13:44:18;13.95;;;12.43;;
19566;SDS011;9930;49.240;8.548;2023-07-02T13:46:44;12.80;;;11.50;;
19566;SDS011;9930;49.240;8.548;2023-07-02T13:49:12;14.35;;;12.23;;
19566;SDS011;9930;49.240;8.548;2023-07-02T13:51:40;13.38;;;11.93;;
19566;SDS011;9930;49.240;8.548;2023-07-02T13:54:11;15.80;;;12.82;;
19566;SDS011;9930;49.240;8.548;2023-07-02T13:56:39;13.32;;;11.90;;
19566;SDS011;9930;49.240;8.548;2023-07-02T13:59:07;13.48;;;12.02;;
19566;SDS011;9930;49.240;8.548;2023-07-02T14:01:35;14.07;;;12.55;;
19566;SDS011;9930;49.240;8.548;2023-07-02T14:04:02;13.20;;;11.90;;
19566;SDS011;9930;49.240;8.548;2023-07-02T14:06:29;13.93;;;12.43;;
19566;SDS011;9930;49.240;8.548;2023-07-02T14:09:00;13.57;;;12.05;;
19566;SDS011;9930;49.240;8.548;2023-07-02T14:11:26;12.85;;;11.43;;
19566;SDS011;9930;49.240;8.548;2023-07-02T14:13:54;13.95;;;12.48;;
19566;SDS011;9930;49.240;8.548;2023-07-02T14:16:23;13.88;;;12.40;;
19566;SDS011;9930;49.240;8.548;2023-07-02T14:18:50;13.77;;;12.38;;
19566;SDS011;9930;49.240;8.548;2023-07-02T14:21:16;13.27;;;11.77;;
19566;SDS011;9930;49.240;8.548;2023-07-02T14:23:43;12.55;;;11.35;;
19566;SDS011;9930;49.240;8.548;2023-07-02T14:26:11;13.90;;;11.93;;
19566;SDS011;9930;49.240;8.548;2023-07-02T14:28:39;12.55;;;11.25;;
19566;SDS011;9930;49.240;8.548;2023-07-02T14:31:05;13.55;;;12.00;;
19566;SDS011;9930;49.240;8.548;2023-07-02T14:33:34;12.93;;;11.63;;
19566;SDS011;9930;49.240;8.548;2023-07-02T14:36:02;13.27;;;11.95;;
19566;SDS011;9930;49.240;8.548;2023-07-02T14:38:32;13.75;;;11.90;;
19566;SDS011;9930;49.240;8.548;2023-07-02T14:41:01;12.75;;;11.45;;
19566;SDS011;9930;49.240;8.548;2023-07-02T14:43:29;12.73;;;11.43;;
19566;SDS011;9930;49.240;8.548;2023-07-02T14:45:59;15.43;;;12.20;;
19566;SDS011;9930;49.240;8.548;2023-07-02T14:48:27;13.73;;;11.90;;
19566;SDS011;9930;49.240;8.548;2023-07-02T14:50:56;12.63;;;11.32;;
19566;SDS011;9930;49.240;8.548;2023-07-02T14:53:27;13.38;;;12.07;;
19566;SDS011;9930;49.240;8.548;2023-07-02T14:55:58;12.93;;;11.52;;
19566;SDS011;9930;49.240;8.548;2023-07-02T14:58:27;12.88;;;11.43;;
19566;SDS011;9930;49.240;8.548;2023-07-02T15:01:00;12.43;;;11.13;;
19566;SDS011;9930;49.240;8.548;2023-07-02T15:03:27;12.90;;;11.60;;
19566;SDS011;9930;49.240;8.548;2023-07-02T15:06:04;13.38;;;11.95;;